KDAG/DAG METAR and TAF weather

Enter ICAO airport designator
Station Type Date Time Source
KDAG METAR 2022/06/25 21:50 UTC NOAA

KDAG 252150Z AUTO 10SM CLR 41/M01 A2987 RMK AO2 SLP081 T04061011


Station Type Date Time Source
KDAG Decoded METAR 2022/06/25 21:50 UTC NOAA

BARSTOW-DAGGETT AIRPORT, CA, United States (KDAG) 34-51N 116-47W 587M
Jun 25, 2022 - 05:50 PM EDT / 2022.06.25 2150 UTC
Visibility: 10 mile(s):0
Sky conditions: clear
Temperature: 105.1 F (40.6 C)
Dew Point: 30.0 F (-1.1 C)
Relative Humidity: 7%
Pressure (altimeter): 29.87 in. Hg (1011 hPa)
ob: KDAG 252150Z AUTO 10SM CLR 41/M01 A2987 RMK AO2 SLP081 T04061011
cycle: 22

Station Type Date Time Source
KDAG TAF 2022/06/25 18:27 UTC NOAA

TAF KDAG 251720Z 2518/2618 31010KT P6SM SKC
FM251900 VRB06KT P6SM SKC
FM260100 24012KT P6SM SKC
FM260300 25015G22KT P6SM SKC
FM261000 29009KT P6SM SKC

Example: see airport list